sensor_id;sensor_type;location;lat;lon;timestamp;pressure;altitude;pressure_sealevel;temperature;humidity
29169;BME280;16219;42.864;23.360;2023-02-15T00:01:33;97089.53;;;-0.94;100.00
29169;BME280;16219;42.864;23.360;2023-02-15T00:04:00;97094.53;;;-0.92;100.00
29169;BME280;16219;42.864;23.360;2023-02-15T00:06:28;97090.50;;;-0.82;100.00
29169;BME280;16219;42.864;23.360;2023-02-15T00:08:55;97103.22;;;-0.73;100.00
29169;BME280;16219;42.864;23.360;2023-02-15T00:11:22;97097.28;;;-0.81;100.00
29169;BME280;16219;42.864;23.360;2023-02-15T00:14:04;97091.94;;;-0.92;100.00
29169;BME280;16219;42.864;23.360;2023-02-15T00:16:32;97099.13;;;-0.94;100.00
29169;BME280;16219;42.864;23.360;2023-02-15T00:18:59;97092.97;;;-1.00;100.00
29169;BME280;16219;42.864;23.360;2023-02-15T00:21:27;97098.31;;;-0.95;100.00
29169;BME280;16219;42.864;23.360;2023-02-15T00:23:55;97105.91;;;-0.93;100.00
29169;BME280;16219;42.864;23.360;2023-02-15T00:26:22;97104.50;;;-0.96;100.00
29169;BME280;16219;42.864;23.360;2023-02-15T00:28:50;97104.50;;;-0.96;100.00
29169;BME280;16219;42.864;23.360;2023-02-15T00:31:19;97101.53;;;-0.99;100.00
29169;BME280;16219;42.864;23.360;2023-02-15T00:33:47;97104.94;;;-1.06;100.00
29169;BME280;16219;42.864;23.360;2023-02-15T00:36:14;97108.13;;;-1.04;100.00
29169;BME280;16219;42.864;23.360;2023-02-15T00:38:41;97111.09;;;-1.07;100.00
29169;BME280;16219;42.864;23.360;2023-02-15T00:41:08;97105.94;;;-1.07;100.00
29169;BME280;16219;42.864;23.360;2023-02-15T00:43:37;97106.97;;;-1.21;100.00
29169;BME280;16219;42.864;23.360;2023-02-15T00:46:04;97107.34;;;-1.17;100.00
29169;BME280;16219;42.864;23.360;2023-02-15T00:48:32;97112.53;;;-1.17;100.00
29169;BME280;16219;42.864;23.360;2023-02-15T00:51:01;97111.34;;;-1.21;100.00
29169;BME280;16219;42.864;23.360;2023-02-15T00:53:28;97112.97;;;-1.27;100.00
29169;BME280;16219;42.864;23.360;2023-02-15T00:55:56;97114.16;;;-1.23;100.00
29169;BME280;16219;42.864;23.360;2023-02-15T00:58:24;97113.38;;;-1.30;100.00
29169;BME280;16219;42.864;23.360;2023-02-15T01:00:51;97102.22;;;-1.31;100.00
29169;BME280;16219;42.864;23.360;2023-02-15T01:03:20;97103.81;;;-1.30;100.00
29169;BME280;16219;42.864;23.360;2023-02-15T01:05:48;97081.31;;;-1.42;100.00
29169;BME280;16219;42.864;23.360;2023-02-15T01:08:17;97107.75;;;-1.20;100.00
29169;BME280;16219;42.864;23.360;2023-02-15T01:10:44;97110.97;;;-1.25;100.00
29169;BME280;16219;42.864;23.360;2023-02-15T01:13:13;97082.72;;;-1.40;100.00
29169;BME280;16219;42.864;23.360;2023-02-15T01:15:41;97099.41;;;-1.29;100.00
29169;BME280;16219;42.864;23.360;2023-02-15T01:18:08;97075.59;;;-1.64;100.00
29169;BME280;16219;42.864;23.360;2023-02-15T01:20:37;97105.84;;;-1.65;100.00
29169;BME280;16219;42.864;23.360;2023-02-15T01:23:07;97076.38;;;-1.70;100.00
29169;BME280;16219;42.864;23.360;2023-02-15T01:25:36;97105.03;;;-1.59;100.00
29169;BME280;16219;42.864;23.360;2023-02-15T01:28:03;97101.84;;;-1.67;100.00
29169;BME280;16219;42.864;23.360;2023-02-15T01:30:32;97101.66;;;-1.59;100.00
29169;BME280;16219;42.864;23.360;2023-02-15T01:32:59;97098.06;;;-1.58;100.00
29169;BME280;16219;42.864;23.360;2023-02-15T01:35:29;97093.88;;;-1.66;100.00
29169;BME280;16219;42.864;23.360;2023-02-15T01:37:57;97093.31;;;-1.61;100.00
29169;BME280;16219;42.864;23.360;2023-02-15T01:40:24;97093.06;;;-1.53;100.00
29169;BME280;16219;42.864;23.360;2023-02-15T01:42:54;97087.91;;;-1.53;100.00
29169;BME280;16219;42.864;23.360;2023-02-15T01:45:24;97086.72;;;-1.57;100.00
29169;BME280;16219;42.864;23.360;2023-02-15T01:47:54;97078.38;;;-1.59;100.00
29169;BME280;16219;42.864;23.360;2023-02-15T01:50:27;97078.56;;;-1.61;100.00
29169;BME280;16219;42.864;23.360;2023-02-15T01:53:01;97078.56;;;-1.61;100.00
29169;BME280;16219;42.864;23.360;2023-02-15T01:55:32;97074.59;;;-1.63;100.00
29169;BME280;16219;42.864;23.360;2023-02-15T01:58:01;97077.38;;;-1.65;100.00
29169;BME280;16219;42.864;23.360;2023-02-15T02:00:29;97075.97;;;-1.61;100.00
29169;BME280;16219;42.864;23.360;2023-02-15T02:02:56;97081.75;;;-1.59;100.00
29169;BME280;16219;42.864;23.360;2023-02-15T02:05:24;97084.53;;;-1.67;100.00
29169;BME280;16219;42.864;23.360;2023-02-15T02:07:52;97087.13;;;-1.73;100.00
29169;BME280;16219;42.864;23.360;2023-02-15T02:10:23;97089.53;;;-1.72;100.00
29169;BME280;16219;42.864;23.360;2023-02-15T02:12:54;97092.13;;;-1.65;100.00
29169;BME280;16219;42.864;23.360;2023-02-15T02:15:30;97092.69;;;-1.83;100.00
29169;BME280;16219;42.864;23.360;2023-02-15T02:18:08;97090.31;;;-1.85;100.00
29169;BME280;16219;42.864;23.360;2023-02-15T02:23:42;97083.75;;;-1.87;100.00
29169;BME280;16219;42.864;23.360;2023-02-15T02:26:49;97095.50;;;-1.78;100.00
29169;BME280;16219;42.864;23.360;2023-02-15T02:35:20;97097.06;;;-1.97;100.00
29169;BME280;16219;42.864;23.360;2023-02-15T02:37:58;97089.91;;;-2.02;100.00
29169;BME280;16219;42.864;23.360;2023-02-15T02:40:36;97101.06;;;-2.08;100.00
29169;BME280;16219;42.864;23.360;2023-02-15T02:43:11;97074.78;;;-2.18;100.00
29169;BME280;16219;42.864;23.360;2023-02-15T02:45:45;97104.63;;;-2.09;100.00
29169;BME280;16219;42.864;23.360;2023-02-15T02:48:20;97105.03;;;-2.05;100.00
29169;BME280;16219;42.864;23.360;2023-02-15T02:50:50;97101.06;;;-2.08;100.00
29169;BME280;16219;42.864;23.360;2023-02-15T02:53:19;97099.44;;;-2.09;100.00
29169;BME280;16219;42.864;23.360;2023-02-15T02:55:47;97092.69;;;-2.16;100.00
29169;BME280;16219;42.864;23.360;2023-02-15T02:58:18;97111.38;;;-2.01;100.00
29169;BME280;16219;42.864;23.360;2023-02-15T03:00:50;97115.38;;;-2.05;100.00
29169;BME280;16219;42.864;23.360;2023-02-15T03:03:22;97111.00;;;-2.11;100.00
29169;BME280;16219;42.864;23.360;2023-02-15T03:05:56;97114.56;;;-2.06;100.00
29169;BME280;16219;42.864;23.360;2023-02-15T03:08:28;97117.75;;;-2.10;100.00
29169;BME280;16219;42.864;23.360;2023-02-15T03:10:59;97121.34;;;-2.11;100.00
29169;BME280;16219;42.864;23.360;2023-02-15T03:13:27;97108.22;;;-2.16;100.00
29169;BME280;16219;42.864;23.360;2023-02-15T03:15:55;97117.53;;;-2.09;100.00
29169;BME280;16219;42.864;23.360;2023-02-15T03:18:43;97095.06;;;-2.28;100.00
29169;BME280;16219;42.864;23.360;2023-02-15T03:21:24;97119.16;;;-2.08;100.00
29169;BME280;16219;42.864;23.360;2023-02-15T03:23:55;97115.38;;;-2.12;100.00
29169;BME280;16219;42.864;23.360;2023-02-15T03:26:24;97120.53;;;-2.12;100.00
29169;BME280;16219;42.864;23.360;2023-02-15T03:28:55;97133.25;;;-2.17;100.00
29169;BME280;16219;42.864;23.360;2023-02-15T03:31:26;97128.47;;;-2.20;100.00
29169;BME280;16219;42.864;23.360;2023-02-15T03:33:57;97129.88;;;-2.24;100.00
29169;BME280;16219;42.864;23.360;2023-02-15T03:36:31;97117.94;;;-2.25;100.00
29169;BME280;16219;42.864;23.360;2023-02-15T03:39:05;97122.88;;;-2.30;100.00
29169;BME280;16219;42.864;23.360;2023-02-15T03:41:38;97120.13;;;-2.22;100.00
29169;BME280;16219;42.864;23.360;2023-02-15T03:44:11;97121.28;;;-2.31;100.00
29169;BME280;16219;42.864;23.360;2023-02-15T03:46:43;97119.28;;;-2.36;100.00
29169;BME280;16219;42.864;23.360;2023-02-15T03:49:15;97123.22;;;-2.46;100.00
29169;BME280;16219;42.864;23.360;2023-02-15T03:51:47;97123.66;;;-2.36;100.00
29169;BME280;16219;42.864;23.360;2023-02-15T03:54:18;97105.38;;;-2.41;100.00
29169;BME280;16219;42.864;23.360;2023-02-15T03:56:59;97124.66;;;-2.37;100.00
29169;BME280;16219;42.864;23.360;2023-02-15T03:59:41;97133.81;;;-2.41;100.00
29169;BME280;16219;42.864;23.360;2023-02-15T04:02:30;97137.59;;;-2.37;100.00
29169;BME280;16219;42.864;23.360;2023-02-15T04:05:00;97139.16;;;-2.43;100.00
29169;BME280;16219;42.864;23.360;2023-02-15T04:07:29;97132.38;;;-2.50;100.00
29169;BME280;16219;42.864;23.360;2023-02-15T04:09:56;97136.53;;;-2.56;100.00
29169;BME280;16219;42.864;23.360;2023-02-15T04:12:42;97142.31;;;-2.47;100.00
29169;BME280;16219;42.864;23.360;2023-02-15T04:15:11;97151.47;;;-2.45;100.00
29169;BME280;16219;42.864;23.360;2023-02-15T04:17:56;97141.09;;;-2.52;100.00
29169;BME280;16219;42.864;23.360;2023-02-15T04:20:23;97148.84;;;-2.58;100.00
29169;BME280;16219;42.864;23.360;2023-02-15T04:23:08;97156.56;;;-2.65;100.00
29169;BME280;16219;42.864;23.360;2023-02-15T04:25:53;97155.22;;;-2.54;100.00
29169;BME280;16219;42.864;23.360;2023-02-15T04:28:19;97155.84;;;-2.45;100.00
29169;BME280;16219;42.864;23.360;2023-02-15T04:30:46;97160.44;;;-2.41;100.00
29169;BME280;16219;42.864;23.360;2023-02-15T04:33:13;97170.94;;;-2.42;100.00
29169;BME280;16219;42.864;23.360;2023-02-15T04:35:42;97162.81;;;-2.39;100.00
29169;BME280;16219;42.864;23.360;2023-02-15T04:38:11;97163.59;;;-2.39;100.00
29169;BME280;16219;42.864;23.360;2023-02-15T04:40:38;97155.06;;;-2.39;100.00
29169;BME280;16219;42.864;23.360;2023-02-15T04:43:05;97162.19;;;-2.48;100.00
29169;BME280;16219;42.864;23.360;2023-02-15T04:45:32;97166.19;;;-2.39;100.00
29169;BME280;16219;42.864;23.360;2023-02-15T04:47:59;97162.44;;;-2.36;100.00
29169;BME280;16219;42.864;23.360;2023-02-15T04:50:26;97175.34;;;-2.36;100.00
29169;BME280;16219;42.864;23.360;2023-02-15T04:52:53;97171.78;;;-2.35;100.00
29169;BME280;16219;42.864;23.360;2023-02-15T04:55:21;97172.94;;;-2.44;100.00
29169;BME280;16219;42.864;23.360;2023-02-15T04:57:50;97175.47;;;-2.51;100.00
29169;BME280;16219;42.864;23.360;2023-02-15T05:00:18;97176.53;;;-2.45;100.00
29169;BME280;16219;42.864;23.360;2023-02-15T05:02:45;97175.91;;;-2.47;100.00
29169;BME280;16219;42.864;23.360;2023-02-15T05:05:12;97172.91;;;-2.51;100.00
29169;BME280;16219;42.864;23.360;2023-02-15T05:07:40;97181.69;;;-2.45;100.00
29169;BME280;16219;42.864;23.360;2023-02-15T05:10:08;97178.69;;;-2.49;100.00
29169;BME280;16219;42.864;23.360;2023-02-15T05:12:37;97187.19;;;-2.55;100.00
29169;BME280;16219;42.864;23.360;2023-02-15T05:15:05;97188.00;;;-2.55;100.00
29169;BME280;16219;42.864;23.360;2023-02-15T05:17:32;97194.16;;;-2.56;100.00
29169;BME280;16219;42.864;23.360;2023-02-15T05:20:00;97195.78;;;-2.55;100.00
29169;BME280;16219;42.864;23.360;2023-02-15T05:22:27;97193.56;;;-2.58;100.00
29169;BME280;16219;42.864;23.360;2023-02-15T05:24:56;97160.25;;;-2.81;100.00
29169;BME280;16219;42.864;23.360;2023-02-15T05:27:42;97207.47;;;-2.59;100.00
29169;BME280;16219;42.864;23.360;2023-02-15T05:30:26;97209.78;;;-2.70;100.00
29169;BME280;16219;42.864;23.360;2023-02-15T05:32:53;97211.16;;;-2.74;100.00
29169;BME280;16219;42.864;23.360;2023-02-15T05:35:20;97196.81;;;-2.77;100.00
29169;BME280;16219;42.864;23.360;2023-02-15T05:37:48;97218.19;;;-2.55;100.00
29169;BME280;16219;42.864;23.360;2023-02-15T05:40:15;97219.41;;;-2.51;100.00
29169;BME280;16219;42.864;23.360;2023-02-15T05:42:44;97226.16;;;-2.57;100.00
29169;BME280;16219;42.864;23.360;2023-02-15T05:45:11;97205.41;;;-2.70;100.00
29169;BME280;16219;42.864;23.360;2023-02-15T05:47:38;97219.56;;;-2.59;100.00
29169;BME280;16219;42.864;23.360;2023-02-15T05:50:07;97221.97;;;-2.58;100.00
29169;BME280;16219;42.864;23.360;2023-02-15T05:52:35;97225.72;;;-2.60;100.00
29169;BME280;16219;42.864;23.360;2023-02-15T05:55:02;97225.16;;;-2.56;100.00
29169;BME280;16219;42.864;23.360;2023-02-15T05:57:30;97226.34;;;-2.58;100.00
29169;BME280;16219;42.864;23.360;2023-02-15T05:59:58;97229.34;;;-2.55;100.00
29169;BME280;16219;42.864;23.360;2023-02-15T06:02:25;97221.78;;;-2.56;100.00
29169;BME280;16219;42.864;23.360;2023-02-15T06:04:53;97227.97;;;-2.50;100.00
29169;BME280;16219;42.864;23.360;2023-02-15T06:07:20;97227.00;;;-2.49;100.00
29169;BME280;16219;42.864;23.360;2023-02-15T06:09:47;97236.91;;;-2.46;100.00
29169;BME280;16219;42.864;23.360;2023-02-15T06:12:15;97241.91;;;-2.45;100.00
29169;BME280;16219;42.864;23.360;2023-02-15T06:14:42;97221.19;;;-2.58;100.00
29169;BME280;16219;42.864;23.360;2023-02-15T06:17:12;97247.91;;;-2.38;100.00
29169;BME280;16219;42.864;23.360;2023-02-15T06:19:39;97243.34;;;-2.36;100.00
29169;BME280;16219;42.864;23.360;2023-02-15T06:22:06;97247.28;;;-2.40;100.00
29169;BME280;16219;42.864;23.360;2023-02-15T06:24:33;97241.75;;;-2.37;100.00
29169;BME280;16219;42.864;23.360;2023-02-15T06:27:01;97218.91;;;-2.33;100.00
29169;BME280;16219;42.864;23.360;2023-02-15T06:29:29;97232.34;;;-2.03;100.00
29169;BME280;16219;42.864;23.360;2023-02-15T06:31:56;97229.19;;;-1.85;100.00
29169;BME280;16219;42.864;23.360;2023-02-15T06:34:25;97239.94;;;-1.75;100.00
29169;BME280;16219;42.864;23.360;2023-02-15T06:36:52;97234.78;;;-1.75;100.00
29169;BME280;16219;42.864;23.360;2023-02-15T06:39:19;97234.59;;;-1.67;100.00
29169;BME280;16219;42.864;23.360;2023-02-15T06:41:48;97243.38;;;-1.55;100.00
29169;BME280;16219;42.864;23.360;2023-02-15T06:44:15;97221.69;;;-1.60;100.00
29169;BME280;16219;42.864;23.360;2023-02-15T06:46:42;97238.03;;;-1.40;100.00
29169;BME280;16219;42.864;23.360;2023-02-15T06:49:09;97234.03;;;-1.29;100.00
29169;BME280;16219;42.864;23.360;2023-02-15T06:51:38;97240.00;;;-1.29;100.00
29169;BME280;16219;42.864;23.360;2023-02-15T06:54:05;97238.00;;;-1.20;100.00
29169;BME280;16219;42.864;23.360;2023-02-15T06:56:32;97218.09;;;-1.26;100.00
29169;BME280;16219;42.864;23.360;2023-02-15T06:59:00;97240.78;;;-1.28;100.00
29169;BME280;16219;42.864;23.360;2023-02-15T07:01:27;97235.22;;;-1.25;100.00
29169;BME280;16219;42.864;23.360;2023-02-15T07:03:54;97234.44;;;-1.12;100.00
29169;BME280;16219;42.864;23.360;2023-02-15T07:06:22;97230.66;;;-1.10;100.00
29169;BME280;16219;42.864;23.360;2023-02-15T07:08:51;97233.66;;;-1.06;100.00
29169;BME280;16219;42.864;23.360;2023-02-15T07:11:18;97232.44;;;-1.10;100.00
29169;BME280;16219;42.864;23.360;2023-02-15T07:14:02;97235.44;;;-0.93;100.00
29169;BME280;16219;42.864;23.360;2023-02-15T07:16:30;97238.56;;;-0.78;100.00
29169;BME280;16219;42.864;23.360;2023-02-15T07:18:57;97237.97;;;-0.67;100.00
29169;BME280;16219;42.864;23.360;2023-02-15T07:21:24;97202.47;;;-0.73;100.00
29169;BME280;16219;42.864;23.360;2023-02-15T07:23:55;97240.06;;;-0.37;100.00
29169;BME280;16219;42.864;23.360;2023-02-15T07:26:23;97234.00;;;-0.18;100.00
29169;BME280;16219;42.864;23.360;2023-02-15T07:28:50;97236.13;;;-0.02;100.00
29169;BME280;16219;42.864;23.360;2023-02-15T07:31:18;97230.88;;;0.12;100.00
29169;BME280;16219;42.864;23.360;2023-02-15T07:33:45;97205.47;;;-0.11;100.00
29169;BME280;16219;42.864;23.360;2023-02-15T07:36:12;97219.91;;;0.10;100.00
29169;BME280;16219;42.864;23.360;2023-02-15T07:38:41;97227.31;;;0.06;100.00
29169;BME280;16219;42.864;23.360;2023-02-15T07:41:11;97218.25;;;0.22;100.00
29169;BME280;16219;42.864;23.360;2023-02-15T07:43:41;97221.19;;;0.32;100.00
29169;BME280;16219;42.864;23.360;2023-02-15T07:46:10;97207.97;;;0.34;100.00
29169;BME280;16219;42.864;23.360;2023-02-15T07:48:39;97226.63;;;0.56;100.00
29169;BME280;16219;42.864;23.360;2023-02-15T07:51:09;97217.31;;;0.73;100.00
29169;BME280;16219;42.864;23.360;2023-02-15T07:53:37;97216.19;;;0.87;100.00
29169;BME280;16219;42.864;23.360;2023-02-15T07:56:06;97213.84;;;1.04;100.00
29169;BME280;16219;42.864;23.360;2023-02-15T07:58:35;97221.56;;;1.11;100.00
29169;BME280;16219;42.864;23.360;2023-02-15T08:01:19;97222.00;;;1.26;100.00
29169;BME280;16219;42.864;23.360;2023-02-15T08:03:47;97216.03;;;1.44;100.00
29169;BME280;16219;42.864;23.360;2023-02-15T08:06:15;97209.38;;;1.48;100.00
29169;BME280;16219;42.864;23.360;2023-02-15T08:08:43;97219.22;;;1.46;100.00
29169;BME280;16219;42.864;23.360;2023-02-15T08:11:17;97196.66;;;1.40;100.00
29169;BME280;16219;42.864;23.360;2023-02-15T08:13:57;97210.75;;;1.50;100.00
29169;BME280;16219;42.864;23.360;2023-02-15T08:16:29;97198.50;;;1.58;100.00
29169;BME280;16219;42.864;23.360;2023-02-15T08:18:57;97201.31;;;1.86;100.00
29169;BME280;16219;42.864;23.360;2023-02-15T08:21:27;97180.56;;;1.98;100.00
29169;BME280;16219;42.864;23.360;2023-02-15T08:23:57;97184.03;;;2.22;100.00
29169;BME280;16219;42.864;23.360;2023-02-15T08:26:26;97194.66;;;2.20;100.00
29169;BME280;16219;42.864;23.360;2023-02-15T08:28:53;97197.44;;;2.37;100.00
29169;BME280;16219;42.864;23.360;2023-02-15T08:31:22;97196.31;;;2.45;100.00
29169;BME280;16219;42.864;23.360;2023-02-15T08:33:52;97200.78;;;2.56;100.00
29169;BME280;16219;42.864;23.360;2023-02-15T08:36:22;97163.25;;;2.45;100.00
29169;BME280;16219;42.864;23.360;2023-02-15T08:38:50;97193.50;;;2.58;100.00
29169;BME280;16219;42.864;23.360;2023-02-15T08:41:20;97194.56;;;2.69;100.00
29169;BME280;16219;42.864;23.360;2023-02-15T08:43:51;97200.78;;;2.68;100.00
29169;BME280;16219;42.864;23.360;2023-02-15T08:46:19;97190.22;;;2.63;100.00
29169;BME280;16219;42.864;23.360;2023-02-15T08:48:48;97196.94;;;2.70;100.00
29169;BME280;16219;42.864;23.360;2023-02-15T08:51:19;97193.44;;;2.77;100.00
29169;BME280;16219;42.864;23.360;2023-02-15T08:53:47;97190.81;;;2.88;100.00
29169;BME280;16219;42.864;23.360;2023-02-15T08:56:16;97193.44;;;3.00;100.00
29169;BME280;16219;42.864;23.360;2023-02-15T08:58:44;97181.72;;;3.26;100.00
29169;BME280;16219;42.864;23.360;2023-02-15T09:01:13;97193.97;;;3.49;100.00
29169;BME280;16219;42.864;23.360;2023-02-15T09:03:44;97190.72;;;3.70;100.00
29169;BME280;16219;42.864;23.360;2023-02-15T09:06:13;97190.63;;;3.94;100.00
29169;BME280;16219;42.864;23.360;2023-02-15T09:08:40;97191.34;;;4.18;100.00
29169;BME280;16219;42.864;23.360;2023-02-15T09:11:10;97175.69;;;4.35;100.00
29169;BME280;16219;42.864;23.360;2023-02-15T09:13:38;97184.59;;;4.67;100.00
29169;BME280;16219;42.864;23.360;2023-02-15T09:16:07;97179.28;;;4.79;100.00
29169;BME280;16219;42.864;23.360;2023-02-15T09:18:36;97188.50;;;5.20;100.00
29169;BME280;16219;42.864;23.360;2023-02-15T09:21:09;97186.19;;;5.24;100.00
29169;BME280;16219;42.864;23.360;2023-02-15T09:23:41;97171.75;;;5.21;100.00
29169;BME280;16219;42.864;23.360;2023-02-15T09:26:11;97181.97;;;5.40;100.00
29169;BME280;16219;42.864;23.360;2023-02-15T09:28:38;97175.69;;;5.41;100.00
29169;BME280;16219;42.864;23.360;2023-02-15T09:31:08;97184.69;;;5.50;100.00
29169;BME280;16219;42.864;23.360;2023-02-15T09:33:35;97180.19;;;5.45;100.00
29169;BME280;16219;42.864;23.360;2023-02-15T09:36:03;97178.72;;;5.76;100.00
29169;BME280;16219;42.864;23.360;2023-02-15T09:38:31;97173.09;;;5.90;100.00
29169;BME280;16219;42.864;23.360;2023-02-15T09:41:17;97168.31;;;6.04;100.00
29169;BME280;16219;42.864;23.360;2023-02-15T09:43:53;97171.31;;;6.17;100.00
29169;BME280;16219;42.864;23.360;2023-02-15T09:46:40;97174.28;;;6.26;100.00
29169;BME280;16219;42.864;23.360;2023-02-15T09:49:21;97175.78;;;6.17;100.00
29169;BME280;16219;42.864;23.360;2023-02-15T09:52:24;97155.94;;;6.26;100.00
29169;BME280;16219;42.864;23.360;2023-02-15T09:55:05;97159.63;;;6.25;100.00
29169;BME280;16219;42.864;23.360;2023-02-15T09:57:43;97156.34;;;6.13;100.00
29169;BME280;16219;42.864;23.360;2023-02-15T10:00:24;97158.28;;;5.95;100.00
29169;BME280;16219;42.864;23.360;2023-02-15T10:03:19;97155.75;;;6.06;100.00
29169;BME280;16219;42.864;23.360;2023-02-15T10:06:01;97147.59;;;6.29;100.00
29169;BME280;16219;42.864;23.360;2023-02-15T10:08:43;97148.94;;;6.37;100.00
29169;BME280;16219;42.864;23.360;2023-02-15T10:11:16;97138.84;;;6.50;100.00
29169;BME280;16219;42.864;23.360;2023-02-15T10:14:15;97137.06;;;6.56;100.00
29169;BME280;16219;42.864;23.360;2023-02-15T10:16:53;97133.19;;;6.64;98.65
29169;BME280;16219;42.864;23.360;2023-02-15T10:19:32;97128.22;;;6.67;100.00
29169;BME280;16219;42.864;23.360;2023-02-15T10:22:13;97130.13;;;6.77;100.00
29169;BME280;16219;42.864;23.360;2023-02-15T10:24:57;97123.63;;;6.85;97.99
29169;BME280;16219;42.864;23.360;2023-02-15T10:27:36;97118.13;;;6.86;95.68
29169;BME280;16219;42.864;23.360;2023-02-15T10:30:10;97112.38;;;6.89;94.44
29169;BME280;16219;42.864;23.360;2023-02-15T10:32:44;97115.03;;;6.99;93.49
29169;BME280;16219;42.864;23.360;2023-02-15T10:35:22;97108.25;;;7.09;91.90
29169;BME280;16219;42.864;23.360;2023-02-15T10:37:59;97100.44;;;7.14;88.98
29169;BME280;16219;42.864;23.360;2023-02-15T10:40:37;97103.31;;;7.17;90.58
29169;BME280;16219;42.864;23.360;2023-02-15T10:43:18;97102.03;;;7.25;89.62
29169;BME280;16219;42.864;23.360;2023-02-15T10:45:55;97093.94;;;7.26;89.78
29169;BME280;16219;42.864;23.360;2023-02-15T10:48:47;97090.53;;;7.36;86.52
29169;BME280;16219;42.864;23.360;2023-02-15T10:51:22;97073.13;;;7.10;89.33
29169;BME280;16219;42.864;23.360;2023-02-15T10:54:06;97084.72;;;7.24;92.35
29169;BME280;16219;42.864;23.360;2023-02-15T10:56:45;97086.38;;;7.45;85.76
29169;BME280;16219;42.864;23.360;2023-02-15T10:59:44;97078.44;;;7.30;85.42
29169;BME280;16219;42.864;23.360;2023-02-15T11:02:22;97084.94;;;7.17;89.08
29169;BME280;16219;42.864;23.360;2023-02-15T11:04:55;97068.47;;;7.27;88.46
29169;BME280;16219;42.864;23.360;2023-02-15T11:07:32;97076.38;;;7.37;84.32
29169;BME280;16219;42.864;23.360;2023-02-15T11:10:07;97075.06;;;7.40;86.89
29169;BME280;16219;42.864;23.360;2023-02-15T11:12:41;97075.88;;;7.45;86.93
29169;BME280;16219;42.864;23.360;2023-02-15T11:15:16;97061.94;;;7.40;89.31
29169;BME280;16219;42.864;23.360;2023-02-15T11:17:57;97071.41;;;7.46;89.70
29169;BME280;16219;42.864;23.360;2023-02-15T11:20:29;97064.28;;;7.31;87.84
29169;BME280;16219;42.864;23.360;2023-02-15T11:22:59;97063.22;;;7.27;89.24
29169;BME280;16219;42.864;23.360;2023-02-15T11:25:30;97067.69;;;7.32;88.51
29169;BME280;16219;42.864;23.360;2023-02-15T11:27:58;97062.47;;;7.42;89.32
29169;BME280;16219;42.864;23.360;2023-02-15T11:30:33;97046.19;;;7.40;89.04
29169;BME280;16219;42.864;23.360;2023-02-15T11:33:15;97061.19;;;7.60;87.67
29169;BME280;16219;42.864;23.360;2023-02-15T11:35:49;97057.00;;;7.54;85.35
29169;BME280;16219;42.864;23.360;2023-02-15T11:38:19;97050.94;;;7.53;88.76
29169;BME280;16219;42.864;23.360;2023-02-15T11:40:48;97051.47;;;7.55;84.17
29169;BME280;16219;42.864;23.360;2023-02-15T11:43:20;97042.28;;;7.58;87.50
29169;BME280;16219;42.864;23.360;2023-02-15T11:45:50;97044.88;;;7.42;83.74
29169;BME280;16219;42.864;23.360;2023-02-15T11:48:20;97039.38;;;7.44;88.47
29169;BME280;16219;42.864;23.360;2023-02-15T11:50:50;97026.78;;;7.46;86.08
29169;BME280;16219;42.864;23.360;2023-02-15T11:53:20;97035.19;;;7.53;84.85
29169;BME280;16219;42.864;23.360;2023-02-15T11:55:50;97030.72;;;7.54;84.46
29169;BME280;16219;42.864;23.360;2023-02-15T11:58:26;97013.38;;;7.47;84.64
29169;BME280;16219;42.864;23.360;2023-02-15T12:01:00;96996.03;;;7.36;84.39
29169;BME280;16219;42.864;23.360;2023-02-15T12:03:43;97017.34;;;7.60;86.01
29169;BME280;16219;42.864;23.360;2023-02-15T12:06:17;97013.69;;;7.61;82.83
29169;BME280;16219;42.864;23.360;2023-02-15T12:08:52;97005.50;;;7.37;85.66
29169;BME280;16219;42.864;23.360;2023-02-15T12:11:30;97008.13;;;7.42;85.87
29169;BME280;16219;42.864;23.360;2023-02-15T12:14:00;96991.34;;;7.43;87.23
29169;BME280;16219;42.864;23.360;2023-02-15T12:16:31;97004.22;;;7.60;85.79
29169;BME280;16219;42.864;23.360;2023-02-15T12:19:02;97003.44;;;7.70;83.65
29169;BME280;16219;42.864;23.360;2023-02-15T12:21:31;97005.53;;;7.58;83.51
29169;BME280;16219;42.864;23.360;2023-02-15T12:24:02;97002.63;;;7.59;84.60
29169;BME280;16219;42.864;23.360;2023-02-15T12:26:32;97001.06;;;7.48;84.59
29169;BME280;16219;42.864;23.360;2023-02-15T12:29:02;97002.38;;;7.56;85.40
29169;BME280;16219;42.864;23.360;2023-02-15T12:31:39;96999.75;;;7.61;86.58
29169;BME280;16219;42.864;23.360;2023-02-15T12:34:12;97001.06;;;7.58;85.22
29169;BME280;16219;42.864;23.360;2023-02-15T12:36:43;96992.66;;;7.56;85.95
29169;BME280;16219;42.864;23.360;2023-02-15T12:39:20;96997.94;;;7.61;85.75
29169;BME280;16219;42.864;23.360;2023-02-15T12:41:59;96982.94;;;7.57;86.56
29169;BME280;16219;42.864;23.360;2023-02-15T12:44:28;96984.00;;;7.61;84.29
29169;BME280;16219;42.864;23.360;2023-02-15T12:46:59;96986.09;;;7.54;84.61
29169;BME280;16219;42.864;23.360;2023-02-15T12:49:31;96978.50;;;7.57;85.52
29169;BME280;16219;42.864;23.360;2023-02-15T12:51:59;96990.28;;;7.55;85.88
29169;BME280;16219;42.864;23.360;2023-02-15T12:54:33;96984.75;;;7.41;86.08
29169;BME280;16219;42.864;23.360;2023-02-15T12:59:49;96976.34;;;7.29;87.53
29169;BME280;16219;42.864;23.360;2023-02-15T13:02:19;96979.50;;;7.36;88.68
29169;BME280;16219;42.864;23.360;2023-02-15T13:04:49;96974.75;;;7.33;85.79
29169;BME280;16219;42.864;23.360;2023-02-15T13:07:17;96969.78;;;7.31;86.51
29169;BME280;16219;42.864;23.360;2023-02-15T13:09:46;96979.25;;;7.37;87.13
29169;BME280;16219;42.864;23.360;2023-02-15T13:12:18;96971.63;;;7.46;87.42
29169;BME280;16219;42.864;23.360;2023-02-15T13:14:48;96962.97;;;7.40;83.73
29169;BME280;16219;42.864;23.360;2023-02-15T13:17:20;96973.72;;;7.39;85.59
29169;BME280;16219;42.864;23.360;2023-02-15T13:19:52;96962.69;;;7.26;86.79